Mayodan, North Carolina
Current Conditions -  °F | °C
As of 11:15 PM on Wednesday 17 Dec 2014 (Local Time) from KSIF Reporting Station
Clear Clear  
Wind Chill: 42°   Ceiling: Unl
Heat Index: 45°   Visibility: 10mi
Dew Point: 32°   Wind: 5mph
Humidity: 61%   Direction: 250°WSW
Pressure: 30.08"   Gusts: NA
Location:  36.41°N, 79.97°W
Report Text: KSIF 180415Z AUTO 25004KT 10SM CLR 07/00 A3008 RMK AO2 T00701001
Loading
Personal Weather Stations






























Interactive Weather Map New forecast layout! Learn more

10-Day Weather Forecast

Advertisements
Track Severe Weather on mobile